sensor_id;sensor_type;location;lat;lon;timestamp;temperature;humidity
17827;DHT22;9038;48.208;16.308;2023-06-26T00:01:27;21.60;92.50
17827;DHT22;9038;48.208;16.308;2023-06-26T00:03:31;21.60;92.30
17827;DHT22;9038;48.208;16.308;2023-06-26T00:05:40;21.50;92.00
17827;DHT22;9038;48.208;16.308;2023-06-26T00:07:42;21.50;91.80
17827;DHT22;9038;48.208;16.308;2023-06-26T00:09:43;21.50;91.80
17827;DHT22;9038;48.208;16.308;2023-06-26T00:11:45;21.50;91.80
17827;DHT22;9038;48.208;16.308;2023-06-26T00:13:47;21.50;91.90
17827;DHT22;9038;48.208;16.308;2023-06-26T00:15:50;21.50;91.90
17827;DHT22;9038;48.208;16.308;2023-06-26T00:17:53;21.50;92.00
17827;DHT22;9038;48.208;16.308;2023-06-26T00:19:55;21.40;92.10
17827;DHT22;9038;48.208;16.308;2023-06-26T00:21:57;21.40;92.00
17827;DHT22;9038;48.208;16.308;2023-06-26T00:23:59;21.40;92.40
17827;DHT22;9038;48.208;16.308;2023-06-26T00:26:01;21.30;92.10
17827;DHT22;9038;48.208;16.308;2023-06-26T00:28:05;21.40;92.30
17827;DHT22;9038;48.208;16.308;2023-06-26T00:30:08;21.30;92.60
17827;DHT22;9038;48.208;16.308;2023-06-26T00:32:10;21.30;92.80
17827;DHT22;9038;48.208;16.308;2023-06-26T00:34:13;21.20;92.80
17827;DHT22;9038;48.208;16.308;2023-06-26T00:36:16;21.20;92.90
17827;DHT22;9038;48.208;16.308;2023-06-26T00:38:17;21.20;92.80
17827;DHT22;9038;48.208;16.308;2023-06-26T00:40:19;21.20;93.00
17827;DHT22;9038;48.208;16.308;2023-06-26T00:42:21;21.10;93.30
17827;DHT22;9038;48.208;16.308;2023-06-26T00:44:26;21.10;93.70
17827;DHT22;9038;48.208;16.308;2023-06-26T00:46:27;21.10;93.80
17827;DHT22;9038;48.208;16.308;2023-06-26T00:48:30;21.10;93.80
17827;DHT22;9038;48.208;16.308;2023-06-26T00:50:33;21.10;94.00
17827;DHT22;9038;48.208;16.308;2023-06-26T00:52:36;21.10;94.30
17827;DHT22;9038;48.208;16.308;2023-06-26T00:54:38;21.10;94.60
17827;DHT22;9038;48.208;16.308;2023-06-26T00:56:40;21.10;94.70
17827;DHT22;9038;48.208;16.308;2023-06-26T00:58:42;21.00;94.70
17827;DHT22;9038;48.208;16.308;2023-06-26T01:00:44;21.00;94.80
17827;DHT22;9038;48.208;16.308;2023-06-26T01:02:46;21.00;94.70
17827;DHT22;9038;48.208;16.308;2023-06-26T01:04:49;21.00;94.90
17827;DHT22;9038;48.208;16.308;2023-06-26T01:06:52;21.00;94.80
17827;DHT22;9038;48.208;16.308;2023-06-26T01:08:57;21.00;94.80
17827;DHT22;9038;48.208;16.308;2023-06-26T01:11:00;20.90;94.70
17827;DHT22;9038;48.208;16.308;2023-06-26T01:13:02;20.90;94.90
17827;DHT22;9038;48.208;16.308;2023-06-26T01:15:05;20.90;95.10
17827;DHT22;9038;48.208;16.308;2023-06-26T01:17:08;20.90;95.40
17827;DHT22;9038;48.208;16.308;2023-06-26T01:19:18;20.80;95.50
17827;DHT22;9038;48.208;16.308;2023-06-26T01:21:26;20.80;95.80
17827;DHT22;9038;48.208;16.308;2023-06-26T01:23:39;20.80;95.70
17827;DHT22;9038;48.208;16.308;2023-06-26T01:26:09;20.80;95.90
17827;DHT22;9038;48.208;16.308;2023-06-26T01:28:16;20.80;96.30
17827;DHT22;9038;48.208;16.308;2023-06-26T01:30:19;20.70;96.40
17827;DHT22;9038;48.208;16.308;2023-06-26T01:32:25;20.70;96.40
17827;DHT22;9038;48.208;16.308;2023-06-26T01:34:29;20.70;96.60
17827;DHT22;9038;48.208;16.308;2023-06-26T01:36:31;20.70;96.80
17827;DHT22;9038;48.208;16.308;2023-06-26T01:38:33;20.60;97.00
17827;DHT22;9038;48.208;16.308;2023-06-26T01:40:35;20.60;97.60
17827;DHT22;9038;48.208;16.308;2023-06-26T01:42:39;20.60;97.70
17827;DHT22;9038;48.208;16.308;2023-06-26T01:44:45;20.60;97.80
17827;DHT22;9038;48.208;16.308;2023-06-26T01:46:54;20.60;98.30
17827;DHT22;9038;48.208;16.308;2023-06-26T01:49:03;20.60;98.20
17827;DHT22;9038;48.208;16.308;2023-06-26T01:51:08;20.60;98.00
17827;DHT22;9038;48.208;16.308;2023-06-26T01:53:15;20.50;97.90
17827;DHT22;9038;48.208;16.308;2023-06-26T01:55:23;20.50;98.10
17827;DHT22;9038;48.208;16.308;2023-06-26T01:57:28;20.50;98.60
17827;DHT22;9038;48.208;16.308;2023-06-26T01:59:33;20.50;98.70
17827;DHT22;9038;48.208;16.308;2023-06-26T02:01:35;20.50;98.90
17827;DHT22;9038;48.208;16.308;2023-06-26T02:03:37;20.50;99.00
17827;DHT22;9038;48.208;16.308;2023-06-26T02:05:39;20.40;99.30
17827;DHT22;9038;48.208;16.308;2023-06-26T02:07:41;20.40;99.70
17827;DHT22;9038;48.208;16.308;2023-06-26T02:09:44;20.40;99.90
17827;DHT22;9038;48.208;16.308;2023-06-26T02:11:46;20.40;99.90
17827;DHT22;9038;48.208;16.308;2023-06-26T02:13:48;20.30;99.90
17827;DHT22;9038;48.208;16.308;2023-06-26T02:15:51;20.30;99.90
17827;DHT22;9038;48.208;16.308;2023-06-26T02:17:53;20.30;99.90
17827;DHT22;9038;48.208;16.308;2023-06-26T02:19:55;20.20;99.90
17827;DHT22;9038;48.208;16.308;2023-06-26T02:21:57;20.20;99.90
17827;DHT22;9038;48.208;16.308;2023-06-26T02:23:59;20.10;99.90
17827;DHT22;9038;48.208;16.308;2023-06-26T02:26:01;20.10;99.90
17827;DHT22;9038;48.208;16.308;2023-06-26T02:28:03;20.10;99.90
17827;DHT22;9038;48.208;16.308;2023-06-26T02:30:06;20.00;99.90
17827;DHT22;9038;48.208;16.308;2023-06-26T02:32:09;20.00;99.90
17827;DHT22;9038;48.208;16.308;2023-06-26T02:34:11;20.00;99.90
17827;DHT22;9038;48.208;16.308;2023-06-26T02:36:13;19.90;99.90
17827;DHT22;9038;48.208;16.308;2023-06-26T02:38:18;19.90;99.90
17827;DHT22;9038;48.208;16.308;2023-06-26T02:40:20;19.90;99.90
17827;DHT22;9038;48.208;16.308;2023-06-26T02:42:24;19.90;99.90
17827;DHT22;9038;48.208;16.308;2023-06-26T02:44:25;19.90;99.90
17827;DHT22;9038;48.208;16.308;2023-06-26T02:46:27;19.90;99.90
17827;DHT22;9038;48.208;16.308;2023-06-26T02:48:31;19.90;99.90
17827;DHT22;9038;48.208;16.308;2023-06-26T02:50:33;19.90;99.90
17827;DHT22;9038;48.208;16.308;2023-06-26T02:52:34;19.90;99.90
17827;DHT22;9038;48.208;16.308;2023-06-26T02:54:36;19.90;99.90
17827;DHT22;9038;48.208;16.308;2023-06-26T02:56:38;19.80;99.90
17827;DHT22;9038;48.208;16.308;2023-06-26T02:58:40;19.80;99.90
17827;DHT22;9038;48.208;16.308;2023-06-26T03:00:42;19.80;99.90
17827;DHT22;9038;48.208;16.308;2023-06-26T03:02:44;19.80;99.90
17827;DHT22;9038;48.208;16.308;2023-06-26T03:04:47;19.80;99.90
17827;DHT22;9038;48.208;16.308;2023-06-26T03:06:50;19.80;99.90
17827;DHT22;9038;48.208;16.308;2023-06-26T03:08:53;19.80;99.90
17827;DHT22;9038;48.208;16.308;2023-06-26T03:10:55;19.80;99.90
17827;DHT22;9038;48.208;16.308;2023-06-26T03:12:57;19.80;99.90
17827;DHT22;9038;48.208;16.308;2023-06-26T03:14:59;19.90;99.90
17827;DHT22;9038;48.208;16.308;2023-06-26T03:17:01;20.00;99.90
17827;DHT22;9038;48.208;16.308;2023-06-26T03:19:04;20.00;99.90
17827;DHT22;9038;48.208;16.308;2023-06-26T03:21:09;20.00;99.90
17827;DHT22;9038;48.208;16.308;2023-06-26T03:23:10;20.10;99.90
17827;DHT22;9038;48.208;16.308;2023-06-26T03:25:12;20.10;99.90
17827;DHT22;9038;48.208;16.308;2023-06-26T03:27:14;20.10;99.90
17827;DHT22;9038;48.208;16.308;2023-06-26T03:29:16;20.10;99.90
17827;DHT22;9038;48.208;16.308;2023-06-26T03:31:18;20.10;99.90
17827;DHT22;9038;48.208;16.308;2023-06-26T03:33:20;20.10;99.90
17827;DHT22;9038;48.208;16.308;2023-06-26T03:35:23;20.10;99.90
17827;DHT22;9038;48.208;16.308;2023-06-26T03:37:26;20.20;99.90
17827;DHT22;9038;48.208;16.308;2023-06-26T03:39:28;20.20;99.90
17827;DHT22;9038;48.208;16.308;2023-06-26T03:41:30;20.20;99.90
17827;DHT22;9038;48.208;16.308;2023-06-26T03:43:32;20.30;99.90
17827;DHT22;9038;48.208;16.308;2023-06-26T03:45:34;20.30;99.90
17827;DHT22;9038;48.208;16.308;2023-06-26T03:47:36;20.30;99.90
17827;DHT22;9038;48.208;16.308;2023-06-26T03:49:38;20.30;99.90
17827;DHT22;9038;48.208;16.308;2023-06-26T03:51:40;20.40;99.90
17827;DHT22;9038;48.208;16.308;2023-06-26T03:53:43;20.40;99.90
17827;DHT22;9038;48.208;16.308;2023-06-26T03:55:45;20.50;99.90
17827;DHT22;9038;48.208;16.308;2023-06-26T03:57:47;20.60;99.90
17827;DHT22;9038;48.208;16.308;2023-06-26T03:59:49;20.70;99.90
17827;DHT22;9038;48.208;16.308;2023-06-26T04:01:51;20.80;99.90
17827;DHT22;9038;48.208;16.308;2023-06-26T04:03:54;20.80;99.90
17827;DHT22;9038;48.208;16.308;2023-06-26T04:05:55;21.00;99.90
17827;DHT22;9038;48.208;16.308;2023-06-26T04:07:57;21.00;99.90
17827;DHT22;9038;48.208;16.308;2023-06-26T04:10:01;21.00;99.90
17827;DHT22;9038;48.208;16.308;2023-06-26T04:12:03;21.10;99.90
17827;DHT22;9038;48.208;16.308;2023-06-26T04:14:05;21.20;99.90
17827;DHT22;9038;48.208;16.308;2023-06-26T04:16:07;21.20;99.90
17827;DHT22;9038;48.208;16.308;2023-06-26T04:18:09;21.20;99.90
17827;DHT22;9038;48.208;16.308;2023-06-26T04:20:11;21.30;99.90
17827;DHT22;9038;48.208;16.308;2023-06-26T04:22:13;21.30;99.90
17827;DHT22;9038;48.208;16.308;2023-06-26T04:24:15;21.40;99.90
17827;DHT22;9038;48.208;16.308;2023-06-26T04:26:19;21.60;99.90
17827;DHT22;9038;48.208;16.308;2023-06-26T04:28:20;21.70;99.90
17827;DHT22;9038;48.208;16.308;2023-06-26T04:30:22;21.90;99.90
17827;DHT22;9038;48.208;16.308;2023-06-26T04:32:24;22.00;99.90
17827;DHT22;9038;48.208;16.308;2023-06-26T04:34:26;22.00;99.90
17827;DHT22;9038;48.208;16.308;2023-06-26T04:36:29;22.00;99.90
17827;DHT22;9038;48.208;16.308;2023-06-26T04:38:32;22.00;99.90
17827;DHT22;9038;48.208;16.308;2023-06-26T04:40:34;22.10;99.90
17827;DHT22;9038;48.208;16.308;2023-06-26T04:42:38;22.10;99.90
17827;DHT22;9038;48.208;16.308;2023-06-26T04:44:40;22.10;99.90
17827;DHT22;9038;48.208;16.308;2023-06-26T04:46:42;22.00;99.90
17827;DHT22;9038;48.208;16.308;2023-06-26T04:48:44;22.00;99.90
17827;DHT22;9038;48.208;16.308;2023-06-26T04:50:46;22.10;99.90
17827;DHT22;9038;48.208;16.308;2023-06-26T04:52:54;22.10;99.90
17827;DHT22;9038;48.208;16.308;2023-06-26T04:54:56;22.20;99.90
17827;DHT22;9038;48.208;16.308;2023-06-26T04:56:58;22.20;99.90
17827;DHT22;9038;48.208;16.308;2023-06-26T04:59:02;22.30;99.90
17827;DHT22;9038;48.208;16.308;2023-06-26T05:01:04;22.30;99.90
17827;DHT22;9038;48.208;16.308;2023-06-26T05:03:07;22.40;99.90
17827;DHT22;9038;48.208;16.308;2023-06-26T05:05:09;22.40;99.90
17827;DHT22;9038;48.208;16.308;2023-06-26T05:07:12;22.40;99.90
17827;DHT22;9038;48.208;16.308;2023-06-26T05:09:14;22.40;99.90
17827;DHT22;9038;48.208;16.308;2023-06-26T05:11:16;22.40;99.90
17827;DHT22;9038;48.208;16.308;2023-06-26T05:13:18;22.50;99.90
17827;DHT22;9038;48.208;16.308;2023-06-26T05:15:21;22.50;99.90
17827;DHT22;9038;48.208;16.308;2023-06-26T05:17:23;22.50;99.90
17827;DHT22;9038;48.208;16.308;2023-06-26T05:19:25;22.60;99.90
17827;DHT22;9038;48.208;16.308;2023-06-26T05:21:28;22.70;99.90
17827;DHT22;9038;48.208;16.308;2023-06-26T05:23:31;22.80;99.90
17827;DHT22;9038;48.208;16.308;2023-06-26T05:25:34;22.90;99.90
17827;DHT22;9038;48.208;16.308;2023-06-26T05:27:37;23.00;99.90
17827;DHT22;9038;48.208;16.308;2023-06-26T05:29:39;23.10;99.90
17827;DHT22;9038;48.208;16.308;2023-06-26T05:31:45;23.10;99.90
17827;DHT22;9038;48.208;16.308;2023-06-26T05:33:49;23.30;99.90
17827;DHT22;9038;48.208;16.308;2023-06-26T05:35:52;23.30;99.90
17827;DHT22;9038;48.208;16.308;2023-06-26T05:37:54;23.30;99.90
17827;DHT22;9038;48.208;16.308;2023-06-26T05:39:57;23.30;99.90
17827;DHT22;9038;48.208;16.308;2023-06-26T05:41:59;23.30;99.70
17827;DHT22;9038;48.208;16.308;2023-06-26T05:44:01;23.40;99.70
17827;DHT22;9038;48.208;16.308;2023-06-26T05:46:03;23.40;99.50
17827;DHT22;9038;48.208;16.308;2023-06-26T05:48:07;23.50;99.50
17827;DHT22;9038;48.208;16.308;2023-06-26T05:50:10;23.50;99.00
17827;DHT22;9038;48.208;16.308;2023-06-26T05:52:13;23.70;99.20
17827;DHT22;9038;48.208;16.308;2023-06-26T05:54:15;23.80;98.60
17827;DHT22;9038;48.208;16.308;2023-06-26T05:56:18;23.90;98.70
17827;DHT22;9038;48.208;16.308;2023-06-26T05:58:20;24.00;98.20
17827;DHT22;9038;48.208;16.308;2023-06-26T06:00:24;24.00;97.80
17827;DHT22;9038;48.208;16.308;2023-06-26T06:02:27;24.10;98.00
17827;DHT22;9038;48.208;16.308;2023-06-26T06:04:30;24.10;97.90
17827;DHT22;9038;48.208;16.308;2023-06-26T06:06:32;24.20;97.60
17827;DHT22;9038;48.208;16.308;2023-06-26T06:08:34;24.20;96.80
17827;DHT22;9038;48.208;16.308;2023-06-26T06:10:36;24.20;96.90
17827;DHT22;9038;48.208;16.308;2023-06-26T06:12:37;24.20;97.00
17827;DHT22;9038;48.208;16.308;2023-06-26T06:14:39;24.20;97.40
17827;DHT22;9038;48.208;16.308;2023-06-26T06:16:41;24.10;97.30
17827;DHT22;9038;48.208;16.308;2023-06-26T06:18:43;24.10;97.40
17827;DHT22;9038;48.208;16.308;2023-06-26T06:20:47;24.10;97.00
17827;DHT22;9038;48.208;16.308;2023-06-26T06:22:49;24.20;97.30
17827;DHT22;9038;48.208;16.308;2023-06-26T06:24:51;24.20;97.20
17827;DHT22;9038;48.208;16.308;2023-06-26T06:26:52;24.20;97.10
17827;DHT22;9038;48.208;16.308;2023-06-26T06:28:54;24.30;97.60
17827;DHT22;9038;48.208;16.308;2023-06-26T06:30:56;24.30;97.20
17827;DHT22;9038;48.208;16.308;2023-06-26T06:32:58;24.30;96.90
17827;DHT22;9038;48.208;16.308;2023-06-26T06:35:00;24.40;96.90
17827;DHT22;9038;48.208;16.308;2023-06-26T06:37:10;24.40;95.00
17827;DHT22;9038;48.208;16.308;2023-06-26T06:39:12;24.60;93.30
17827;DHT22;9038;48.208;16.308;2023-06-26T06:41:14;24.70;92.70
17827;DHT22;9038;48.208;16.308;2023-06-26T06:43:17;24.80;92.00
17827;DHT22;9038;48.208;16.308;2023-06-26T06:45:18;24.90;91.20
17827;DHT22;9038;48.208;16.308;2023-06-26T06:47:20;25.00;92.60
17827;DHT22;9038;48.208;16.308;2023-06-26T06:49:22;25.10;92.60
17827;DHT22;9038;48.208;16.308;2023-06-26T06:51:24;25.20;91.90
17827;DHT22;9038;48.208;16.308;2023-06-26T06:53:27;25.30;90.70
17827;DHT22;9038;48.208;16.308;2023-06-26T06:55:29;25.40;89.80
17827;DHT22;9038;48.208;16.308;2023-06-26T06:57:32;25.50;89.10
17827;DHT22;9038;48.208;16.308;2023-06-26T06:59:36;25.50;90.10
17827;DHT22;9038;48.208;16.308;2023-06-26T07:01:39;25.60;88.90
17827;DHT22;9038;48.208;16.308;2023-06-26T07:03:41;25.70;88.20
17827;DHT22;9038;48.208;16.308;2023-06-26T07:05:44;25.70;87.00
17827;DHT22;9038;48.208;16.308;2023-06-26T07:07:46;25.80;88.20
17827;DHT22;9038;48.208;16.308;2023-06-26T07:09:49;25.90;87.20
17827;DHT22;9038;48.208;16.308;2023-06-26T07:11:51;25.90;87.30
17827;DHT22;9038;48.208;16.308;2023-06-26T07:13:53;26.00;85.20
17827;DHT22;9038;48.208;16.308;2023-06-26T07:15:54;26.00;83.70
17827;DHT22;9038;48.208;16.308;2023-06-26T07:17:56;26.00;84.20
17827;DHT22;9038;48.208;16.308;2023-06-26T07:19:59;26.00;83.10
17827;DHT22;9038;48.208;16.308;2023-06-26T07:22:01;26.00;83.20
17827;DHT22;9038;48.208;16.308;2023-06-26T07:24:03;26.00;82.90
17827;DHT22;9038;48.208;16.308;2023-06-26T07:26:06;25.90;81.50
17827;DHT22;9038;48.208;16.308;2023-06-26T07:28:10;25.80;81.40
17827;DHT22;9038;48.208;16.308;2023-06-26T07:30:12;25.90;81.60
17827;DHT22;9038;48.208;16.308;2023-06-26T07:32:14;25.80;82.60
17827;DHT22;9038;48.208;16.308;2023-06-26T07:34:16;25.80;83.30
17827;DHT22;9038;48.208;16.308;2023-06-26T07:36:18;25.90;83.00
17827;DHT22;9038;48.208;16.308;2023-06-26T07:38:20;26.00;82.40
17827;DHT22;9038;48.208;16.308;2023-06-26T07:40:22;26.10;81.30
17827;DHT22;9038;48.208;16.308;2023-06-26T07:42:25;26.20;80.90
17827;DHT22;9038;48.208;16.308;2023-06-26T07:44:27;26.30;78.70
17827;DHT22;9038;48.208;16.308;2023-06-26T07:46:29;26.40;78.50
17827;DHT22;9038;48.208;16.308;2023-06-26T07:48:31;26.50;77.20
17827;DHT22;9038;48.208;16.308;2023-06-26T07:50:33;26.60;75.10
17827;DHT22;9038;48.208;16.308;2023-06-26T07:52:35;26.90;74.90
17827;DHT22;9038;48.208;16.308;2023-06-26T07:54:37;27.30;74.90
17827;DHT22;9038;48.208;16.308;2023-06-26T07:56:53;27.70;74.80
17827;DHT22;9038;48.208;16.308;2023-06-26T07:58:56;28.10;72.30
17827;DHT22;9038;48.208;16.308;2023-06-26T08:01:01;28.50;70.30
17827;DHT22;9038;48.208;16.308;2023-06-26T08:03:03;29.00;70.70
17827;DHT22;9038;48.208;16.308;2023-06-26T08:05:05;29.70;69.10
17827;DHT22;9038;48.208;16.308;2023-06-26T08:07:07;30.40;67.30
17827;DHT22;9038;48.208;16.308;2023-06-26T08:09:09;31.10;64.90
17827;DHT22;9038;48.208;16.308;2023-06-26T08:13:15;32.90;59.80
17827;DHT22;9038;48.208;16.308;2023-06-26T08:15:18;33.90;58.10
17827;DHT22;9038;48.208;16.308;2023-06-26T08:17:20;34.80;55.20
17827;DHT22;9038;48.208;16.308;2023-06-26T08:19:22;35.40;53.50
17827;DHT22;9038;48.208;16.308;2023-06-26T08:21:24;36.10;50.80
17827;DHT22;9038;48.208;16.308;2023-06-26T08:23:26;36.60;49.70
17827;DHT22;9038;48.208;16.308;2023-06-26T08:25:28;37.10;48.90
17827;DHT22;9038;48.208;16.308;2023-06-26T08:27:30;37.60;47.60
17827;DHT22;9038;48.208;16.308;2023-06-26T08:29:31;38.30;46.20
17827;DHT22;9038;48.208;16.308;2023-06-26T08:31:35;38.70;45.40
17827;DHT22;9038;48.208;16.308;2023-06-26T08:33:37;39.20;44.60
17827;DHT22;9038;48.208;16.308;2023-06-26T08:35:39;39.70;42.60
17827;DHT22;9038;48.208;16.308;2023-06-26T08:37:41;39.80;41.60
17827;DHT22;9038;48.208;16.308;2023-06-26T08:39:43;40.20;41.20
17827;DHT22;9038;48.208;16.308;2023-06-26T08:41:45;40.50;40.80
17827;DHT22;9038;48.208;16.308;2023-06-26T08:43:47;41.00;40.60
17827;DHT22;9038;48.208;16.308;2023-06-26T08:45:49;41.60;39.50
17827;DHT22;9038;48.208;16.308;2023-06-26T08:47:54;42.10;38.80
17827;DHT22;9038;48.208;16.308;2023-06-26T08:50:03;42.50;37.60
17827;DHT22;9038;48.208;16.308;2023-06-26T08:52:13;42.90;36.80
17827;DHT22;9038;48.208;16.308;2023-06-26T08:54:24;43.30;35.80
17827;DHT22;9038;48.208;16.308;2023-06-26T08:56:32;43.60;35.60
17827;DHT22;9038;48.208;16.308;2023-06-26T08:58:36;43.70;35.10
17827;DHT22;9038;48.208;16.308;2023-06-26T09:00:38;43.60;34.80
17827;DHT22;9038;48.208;16.308;2023-06-26T09:02:41;43.70;35.00
17827;DHT22;9038;48.208;16.308;2023-06-26T09:04:44;44.00;34.50
17827;DHT22;9038;48.208;16.308;2023-06-26T09:06:46;44.50;33.90
17827;DHT22;9038;48.208;16.308;2023-06-26T09:08:48;44.80;32.90
17827;DHT22;9038;48.208;16.308;2023-06-26T09:10:50;45.10;32.30
17827;DHT22;9038;48.208;16.308;2023-06-26T09:12:55;45.50;32.10
17827;DHT22;9038;48.208;16.308;2023-06-26T09:14:57;45.80;31.20
17827;DHT22;9038;48.208;16.308;2023-06-26T09:17:00;46.20;31.00
17827;DHT22;9038;48.208;16.308;2023-06-26T09:21:08;46.50;29.30
17827;DHT22;9038;48.208;16.308;2023-06-26T09:23:10;46.60;29.50
17827;DHT22;9038;48.208;16.308;2023-06-26T09:25:12;46.70;29.50
17827;DHT22;9038;48.208;16.308;2023-06-26T09:27:14;46.90;29.20
17827;DHT22;9038;48.208;16.308;2023-06-26T09:29:17;47.20;29.20
17827;DHT22;9038;48.208;16.308;2023-06-26T09:31:20;47.40;28.90
17827;DHT22;9038;48.208;16.308;2023-06-26T09:33:22;47.50;28.40
17827;DHT22;9038;48.208;16.308;2023-06-26T09:35:27;47.60;28.40
17827;DHT22;9038;48.208;16.308;2023-06-26T09:37:30;47.70;28.70
17827;DHT22;9038;48.208;16.308;2023-06-26T09:39:32;47.90;28.00
17827;DHT22;9038;48.208;16.308;2023-06-26T09:41:34;48.00;28.30
17827;DHT22;9038;48.208;16.308;2023-06-26T09:43:45;48.30;27.60
17827;DHT22;9038;48.208;16.308;2023-06-26T09:45:47;48.50;27.00
17827;DHT22;9038;48.208;16.308;2023-06-26T09:47:49;48.50;27.30
17827;DHT22;9038;48.208;16.308;2023-06-26T09:49:51;48.40;27.00
17827;DHT22;9038;48.208;16.308;2023-06-26T09:51:55;47.60;27.10
17827;DHT22;9038;48.208;16.308;2023-06-26T09:53:58;47.20;27.90
17827;DHT22;9038;48.208;16.308;2023-06-26T09:56:05;47.20;27.90
17827;DHT22;9038;48.208;16.308;2023-06-26T09:58:08;47.50;27.70
17827;DHT22;9038;48.208;16.308;2023-06-26T10:00:15;47.70;27.80
17827;DHT22;9038;48.208;16.308;2023-06-26T10:02:17;48.00;27.70
17827;DHT22;9038;48.208;16.308;2023-06-26T10:04:19;48.20;28.20
17827;DHT22;9038;48.208;16.308;2023-06-26T10:06:26;48.30;27.30
17827;DHT22;9038;48.208;16.308;2023-06-26T10:08:29;47.90;27.00
17827;DHT22;9038;48.208;16.308;2023-06-26T10:10:34;47.60;27.30
17827;DHT22;9038;48.208;16.308;2023-06-26T10:12:37;47.60;27.40
17827;DHT22;9038;48.208;16.308;2023-06-26T10:14:40;47.70;27.40
17827;DHT22;9038;48.208;16.308;2023-06-26T10:16:44;47.90;27.40
17827;DHT22;9038;48.208;16.308;2023-06-26T10:18:49;48.10;27.30
17827;DHT22;9038;48.208;16.308;2023-06-26T10:20:54;48.00;26.40
17827;DHT22;9038;48.208;16.308;2023-06-26T10:23:01;47.80;26.70
17827;DHT22;9038;48.208;16.308;2023-06-26T10:25:06;47.90;27.00
17827;DHT22;9038;48.208;16.308;2023-06-26T10:27:18;48.20;26.50
17827;DHT22;9038;48.208;16.308;2023-06-26T10:29:27;48.40;26.60
17827;DHT22;9038;48.208;16.308;2023-06-26T10:31:32;48.80;26.40
17827;DHT22;9038;48.208;16.308;2023-06-26T10:33:35;49.00;26.40
17827;DHT22;9038;48.208;16.308;2023-06-26T10:35:42;49.20;25.90
17827;DHT22;9038;48.208;16.308;2023-06-26T10:37:45;49.00;26.00
17827;DHT22;9038;48.208;16.308;2023-06-26T10:39:48;48.90;26.10
17827;DHT22;9038;48.208;16.308;2023-06-26T10:41:54;48.90;26.10
17827;DHT22;9038;48.208;16.308;2023-06-26T10:44:08;48.90;25.50
17827;DHT22;9038;48.208;16.308;2023-06-26T10:46:11;48.80;24.90
17827;DHT22;9038;48.208;16.308;2023-06-26T10:48:14;48.20;25.60
17827;DHT22;9038;48.208;16.308;2023-06-26T10:50:20;48.10;26.10
17827;DHT22;9038;48.208;16.308;2023-06-26T10:52:22;48.20;26.10
17827;DHT22;9038;48.208;16.308;2023-06-26T10:54:30;47.90;26.00
17827;DHT22;9038;48.208;16.308;2023-06-26T10:56:50;47.30;26.40
17827;DHT22;9038;48.208;16.308;2023-06-26T10:58:53;46.80;26.80
17827;DHT22;9038;48.208;16.308;2023-06-26T11:01:18;46.90;26.80
17827;DHT22;9038;48.208;16.308;2023-06-26T11:03:23;47.10;26.90
17827;DHT22;9038;48.208;16.308;2023-06-26T11:05:26;47.60;26.70
17827;DHT22;9038;48.208;16.308;2023-06-26T11:07:29;48.00;26.40
17827;DHT22;9038;48.208;16.308;2023-06-26T11:09:32;48.30;26.60
17827;DHT22;9038;48.208;16.308;2023-06-26T11:11:55;48.60;25.90
17827;DHT22;9038;48.208;16.308;2023-06-26T11:13:59;48.90;25.50
17827;DHT22;9038;48.208;16.308;2023-06-26T11:16:01;49.30;25.70
17827;DHT22;9038;48.208;16.308;2023-06-26T11:18:05;49.50;25.60
17827;DHT22;9038;48.208;16.308;2023-06-26T11:20:08;49.50;25.40
17827;DHT22;9038;48.208;16.308;2023-06-26T11:22:12;49.30;25.10
17827;DHT22;9038;48.208;16.308;2023-06-26T11:24:16;49.50;25.20
17827;DHT22;9038;48.208;16.308;2023-06-26T11:26:19;49.70;25.30
17827;DHT22;9038;48.208;16.308;2023-06-26T11:28:22;49.90;25.00
17827;DHT22;9038;48.208;16.308;2023-06-26T11:30:25;50.10;25.00
17827;DHT22;9038;48.208;16.308;2023-06-26T11:32:27;50.10;24.70
17827;DHT22;9038;48.208;16.308;2023-06-26T11:36:34;50.00;24.40
17827;DHT22;9038;48.208;16.308;2023-06-26T11:38:37;50.10;25.10
17827;DHT22;9038;48.208;16.308;2023-06-26T11:40:39;50.00;25.00
17827;DHT22;9038;48.208;16.308;2023-06-26T11:42:41;50.00;25.00
17827;DHT22;9038;48.208;16.308;2023-06-26T11:44:44;50.00;25.00
17827;DHT22;9038;48.208;16.308;2023-06-26T11:46:46;49.90;25.00
17827;DHT22;9038;48.208;16.308;2023-06-26T11:48:49;50.00;24.70
17827;DHT22;9038;48.208;16.308;2023-06-26T11:50:53;49.90;25.20
17827;DHT22;9038;48.208;16.308;2023-06-26T11:52:56;49.90;24.60
17827;DHT22;9038;48.208;16.308;2023-06-26T11:54:58;49.90;24.60
17827;DHT22;9038;48.208;16.308;2023-06-26T11:57:00;50.00;24.70
17827;DHT22;9038;48.208;16.308;2023-06-26T11:59:03;49.80;24.50
17827;DHT22;9038;48.208;16.308;2023-06-26T12:01:06;49.60;25.10
17827;DHT22;9038;48.208;16.308;2023-06-26T12:03:08;49.30;24.90
17827;DHT22;9038;48.208;16.308;2023-06-26T12:05:10;49.20;25.40
17827;DHT22;9038;48.208;16.308;2023-06-26T12:07:14;49.40;25.60
17827;DHT22;9038;48.208;16.308;2023-06-26T12:09:18;49.50;25.30
17827;DHT22;9038;48.208;16.308;2023-06-26T12:11:22;49.30;25.20
17827;DHT22;9038;48.208;16.308;2023-06-26T12:13:25;49.30;25.40
17827;DHT22;9038;48.208;16.308;2023-06-26T12:15:28;49.40;25.50
17827;DHT22;9038;48.208;16.308;2023-06-26T12:17:30;49.50;25.50
17827;DHT22;9038;48.208;16.308;2023-06-26T12:19:33;49.60;25.20
17827;DHT22;9038;48.208;16.308;2023-06-26T12:21:47;49.50;25.30
17827;DHT22;9038;48.208;16.308;2023-06-26T12:23:59;49.40;24.80
17827;DHT22;9038;48.208;16.308;2023-06-26T12:26:16;49.50;25.20
17827;DHT22;9038;48.208;16.308;2023-06-26T12:28:19;49.30;25.10
17827;DHT22;9038;48.208;16.308;2023-06-26T12:30:21;48.60;25.00
17827;DHT22;9038;48.208;16.308;2023-06-26T12:32:23;48.10;25.70
17827;DHT22;9038;48.208;16.308;2023-06-26T12:34:28;47.40;25.70
17827;DHT22;9038;48.208;16.308;2023-06-26T12:36:39;47.00;26.10
17827;DHT22;9038;48.208;16.308;2023-06-26T12:38:41;46.80;26.40
17827;DHT22;9038;48.208;16.308;2023-06-26T12:40:47;46.90;26.70
17827;DHT22;9038;48.208;16.308;2023-06-26T12:42:49;46.90;26.80
17827;DHT22;9038;48.208;16.308;2023-06-26T12:44:51;47.10;26.80
17827;DHT22;9038;48.208;16.308;2023-06-26T12:46:58;47.30;26.70
17827;DHT22;9038;48.208;16.308;2023-06-26T12:49:00;47.40;26.60
17827;DHT22;9038;48.208;16.308;2023-06-26T12:51:08;47.60;26.60
17827;DHT22;9038;48.208;16.308;2023-06-26T12:53:10;47.60;26.40
17827;DHT22;9038;48.208;16.308;2023-06-26T12:55:12;47.60;26.60
17827;DHT22;9038;48.208;16.308;2023-06-26T12:57:15;47.00;26.60
17827;DHT22;9038;48.208;16.308;2023-06-26T12:59:17;46.00;27.20
17827;DHT22;9038;48.208;16.308;2023-06-26T13:01:19;45.10;27.80
17827;DHT22;9038;48.208;16.308;2023-06-26T13:03:21;44.80;28.30
17827;DHT22;9038;48.208;16.308;2023-06-26T13:05:23;44.80;28.30